Time;durP1;ratioP1;P1;durP2;ratioP2;P2;SDS_P1;SDS_P2;PMS_P1;PMS_P2;Temp;Humidity;BMP_temperature;BMP_pressure;BME280_temperature;BME280_humidity;BME280_pressure;Samples;Min_cycle;Max_cycle;Signal;HPM_P1;HPM_P2
2024/03/12 00:00:06;;;;;;;5.35;2.92;;;;;;;11.97;63.06;92844.81;522834;28;859;-70
2024/03/12 00:00:23;;;;;;;7.40;3.03;;;;;;;11.99;63.08;92844.97;522897;28;836;-70
2024/03/12 00:00:40;;;;;;;6.00;3.15;;;;;;;11.99;63.08;92844.97;522832;28;1039;-70
2024/03/12 00:00:58;;;;;;;7.95;3.28;;;;;;;12.01;63.14;92852.69;522891;28;891;-70
2024/03/12 00:01:19;;;;;;;8.25;3.20;;;;;;;12.00;62.97;92842.94;522852;28;906;-70
2024/03/12 00:01:35;;;;;;;4.47;3.20;;;;;;;11.99;63.23;92852.53;522832;28;788;-70
2024/03/12 00:01:51;;;;;;;4.90;2.90;;;;;;;11.97;63.46;92855.91;522845;28;887;-70
2024/03/12 00:02:07;;;;;;;5.70;3.00;;;;;;;11.96;63.36;92857.19;522848;28;815;-70
2024/03/12 00:02:25;;;;;;;4.07;3.00;;;;;;;11.96;63.40;92856.44;522887;28;921;-71
2024/03/12 00:02:44;;;;;;;4.50;2.72;;;;;;;11.96;63.66;92862.72;522861;28;906;-69
2024/03/12 00:02:59;;;;;;;5.55;2.70;;;;;;;11.96;63.34;92859.94;522807;28;832;-70
2024/03/12 00:03:15;;;;;;;5.90;2.60;;;;;;;11.96;63.51;92862.72;522868;28;924;-69
2024/03/12 00:03:30;;;;;;;5.43;2.75;;;;;;;11.96;63.63;92859.94;522837;28;836;-70
2024/03/12 00:03:46;;;;;;;5.43;3.23;;;;;;;11.96;63.53;92865.47;522862;28;781;-70
2024/03/12 00:04:02;;;;;;;4.93;3.10;;;;;;;11.96;63.42;92873.78;522886;28;760;-70
2024/03/12 00:04:18;;;;;;;5.13;2.90;;;;;;;11.98;63.31;92875.97;522745;28;864;-70
2024/03/12 00:04:33;;;;;;;6.18;3.03;;;;;;;11.96;63.44;92875.81;522835;28;796;-70
2024/03/12 00:04:49;;;;;;;5.03;2.87;;;;;;;11.97;63.53;92874.53;522876;28;843;-70
2024/03/12 00:05:08;;;;;;;4.30;2.95;;;;;;;11.94;63.55;92879.16;522853;28;745;-70
2024/03/12 00:05:24;;;;;;;4.40;3.13;;;;;;;11.94;63.27;92875.66;522792;28;995;-70
2024/03/12 00:05:40;;;;;;;5.10;3.17;;;;;;;11.93;63.37;92876.97;522815;28;863;-69
2024/03/12 00:05:59;;;;;;;6.40;3.33;;;;;;;11.92;63.62;92884.53;522910;28;796;-70
2024/03/12 00:06:15;;;;;;;5.65;3.45;;;;;;;11.90;63.56;92883.63;522829;28;893;-70
2024/03/12 00:06:30;;;;;;;5.68;3.58;;;;;;;11.85;63.88;92888.09;522814;28;890;-70
2024/03/12 00:06:46;;;;;;;4.90;3.23;;;;;;;11.82;64.08;92889.28;522717;28;777;-69
2024/03/12 00:07:01;;;;;;;4.37;3.40;;;;;;;11.80;64.12;92886.31;522618;28;939;-70
2024/03/12 00:07:22;;;;;;;6.50;3.92;;;;;;;11.79;64.58;92898.69;522711;28;742;-70
2024/03/12 00:07:37;;;;;;;6.85;3.80;;;;;;;11.80;64.31;92891.13;522735;28;820;-70
2024/03/12 00:07:53;;;;;;;7.43;3.35;;;;;;;11.81;64.38;92898.13;522696;28;783;-70
2024/03/12 00:08:08;;;;;;;7.43;3.30;;;;;;;11.83;64.36;92893.47;522682;28;835;-70
2024/03/12 00:08:24;;;;;;;6.45;3.00;;;;;;;11.84;64.28;92891.44;522737;28;833;-70
2024/03/12 00:08:39;;;;;;;7.23;2.80;;;;;;;11.81;64.44;92896.09;522859;28;844;-70
2024/03/12 00:08:55;;;;;;;6.72;3.10;;;;;;;11.81;64.62;92896.09;522864;28;816;-70
2024/03/12 00:09:11;;;;;;;5.27;2.97;;;;;;;11.79;64.92;92895.94;522790;28;1914;-69
2024/03/12 00:09:27;;;;;;;5.18;2.90;;;;;;;11.81;64.87;92900.88;522856;28;840;-69
2024/03/12 00:09:42;;;;;;;6.13;2.97;;;;;;;11.81;65.08;92903.66;522862;28;832;-71
2024/03/12 00:09:57;;;;;;;6.43;2.97;;;;;;;11.82;64.99;92903.09;522864;28;848;-70
2024/03/12 00:10:19;;;;;;;5.47;3.10;;;;;;;11.76;65.62;92910.88;522807;28;868;-70
2024/03/12 00:10:34;;;;;;;6.05;3.15;;;;;;;11.77;65.57;92906.84;522851;28;812;-70
2024/03/12 00:10:50;;;;;;;5.65;3.13;;;;;;;11.77;65.70;92909.59;522783;28;856;-70
2024/03/12 00:11:05;;;;;;;3.67;2.90;;;;;;;11.78;65.77;92911.03;522868;28;879;-70
2024/03/12 00:11:24;;;;;;;3.67;2.75;;;;;;;11.76;66.26;92913.66;522758;28;950;-70
2024/03/12 00:11:42;;;;;;;4.80;2.85;;;;;;;11.75;66.30;92917.72;522822;28;828;-70
2024/03/12 00:11:57;;;;;;;6.32;2.92;;;;;;;11.76;66.28;92924.72;522880;28;871;-70
2024/03/12 00:12:13;;;;;;;7.28;3.05;;;;;;;11.76;66.50;92915.69;522809;28;840;-70
2024/03/12 00:12:28;;;;;;;5.33;3.00;;;;;;;11.73;66.25;92917.56;522858;28;812;-69
2024/03/12 00:12:47;;;;;;;4.47;2.80;;;;;;;11.66;66.70;92910.06;523026;28;784;-69
2024/03/12 00:13:04;;;;;;;5.07;2.90;;;;;;;11.62;66.79;92909.00;523160;28;807;-69
2024/03/12 00:13:19;;;;;;;4.10;2.85;;;;;;;11.63;66.86;92918.75;523240;28;883;-69
2024/03/12 00:13:34;;;;;;;4.70;2.70;;;;;;;11.65;66.81;92922.41;523234;28;772;-69
2024/03/12 00:13:50;;;;;;;4.80;2.65;;;;;;;11.65;67.07;92929.97;523219;28;1084;-69
2024/03/12 00:14:05;;;;;;;3.67;2.60;;;;;;;11.67;67.19;92936.44;523182;28;833;-70
2024/03/12 00:14:21;;;;;;;4.10;2.97;;;;;;;11.68;67.51;92926.84;523167;28;823;-70
2024/03/12 00:14:39;;;;;;;4.37;2.93;;;;;;;11.67;67.98;92933.69;523212;28;816;-69
2024/03/12 00:14:55;;;;;;;5.50;3.10;;;;;;;11.62;68.84;92914.53;523162;28;895;-70
2024/03/12 00:15:10;;;;;;;5.00;3.08;;;;;;;11.60;69.05;92920.63;523199;28;745;-70
2024/03/12 00:15:26;;;;;;;3.13;2.70;;;;;;;11.57;69.13;92923.78;523206;28;832;-70
2024/03/12 00:15:41;;;;;;;3.28;2.55;;;;;;;11.53;69.43;92926.94;523215;28;833;-70
2024/03/12 00:16:00;;;;;;;3.45;2.30;;;;;;;11.44;70.26;92931.09;523218;28;737;-70
2024/03/12 00:16:17;;;;;;;2.85;2.13;;;;;;;11.37;70.68;92925.63;523276;28;875;-70
2024/03/12 00:16:34;;;;;;;2.92;2.08;;;;;;;11.31;71.25;92936.19;523150;28;833;-70
2024/03/12 00:16:49;;;;;;;3.90;2.05;;;;;;;11.24;71.71;92923.19;523135;28;792;-70
2024/03/12 00:17:08;;;;;;;3.80;2.30;;;;;;;11.12;72.04;92942.25;523232;28;871;-70
2024/03/12 00:17:24;;;;;;;2.13;1.83;;;;;;;11.12;72.21;92922.91;521001;28;928;-70
2024/03/12 00:17:39;;;;;;;1.92;1.50;;;;;;;11.11;72.65;92937.28;521030;28;864;-70
2024/03/12 00:17:55;;;;;;;2.17;1.60;;;;;;;11.10;72.71;92941.34;521021;28;789;-70
2024/03/12 00:18:10;;;;;;;1.85;1.52;;;;;;;11.04;73.31;92938.06;520903;28;907;-70
2024/03/12 00:18:26;;;;;;;1.57;1.40;;;;;;;10.97;73.78;92938.84;520960;28;836;-70
2024/03/12 00:18:41;;;;;;;2.83;1.80;;;;;;;10.87;74.07;92938.00;520919;28;793;-70
2024/03/12 00:18:57;;;;;;;3.13;1.93;;;;;;;10.84;74.38;92939.88;520994;28;853;-70
2024/03/12 00:19:12;;;;;;;2.28;1.70;;;;;;;10.84;74.21;92945.38;521025;28;810;-70
2024/03/12 00:19:28;;;;;;;2.90;1.70;;;;;;;10.86;73.99;92945.56;521073;28;974;-70
2024/03/12 00:19:43;;;;;;;2.75;1.77;;;;;;;10.85;74.65;92951.66;521125;28;800;-70
2024/03/12 00:20:15;;;;;;;1.93;1.73;;;;;;;10.77;75.27;92945.44;521154;28;850;-70
2024/03/12 00:20:33;;;;;;;2.75;1.95;;;;;;;10.68;75.75;92947.50;521164;28;952;-70
2024/03/12 00:20:51;;;;;;;2.67;1.70;;;;;;;10.64;75.36;92951.94;521098;28;821;-70
2024/03/12 00:21:07;;;;;;;2.28;1.45;;;;;;;10.64;75.29;92951.94;521135;28;876;-70
2024/03/12 00:21:23;;;;;;;2.60;1.55;;;;;;;10.64;75.54;92944.41;521172;28;840;-70
2024/03/12 00:21:38;;;;;;;3.27;1.60;;;;;;;10.64;75.70;92941.66;521121;28;773;-70
2024/03/12 00:21:55;;;;;;;2.60;1.50;;;;;;;10.62;75.89;92944.25;521191;28;810;-71
2024/03/12 00:22:11;;;;;;;2.45;1.50;;;;;;;10.64;76.13;92949.94;521149;28;896;-70
2024/03/12 00:22:26;;;;;;;3.28;1.77;;;;;;;10.66;76.32;92952.13;521070;28;841;-70
2024/03/12 00:22:47;;;;;;;3.37;1.83;;;;;;;10.65;76.55;92948.63;521138;28;777;-70
2024/03/12 00:23:05;;;;;;;3.38;1.85;;;;;;;10.68;76.42;92951.56;521062;28;821;-70
2024/03/12 00:23:25;;;;;;;3.03;1.88;;;;;;;10.65;76.69;92953.44;521066;28;853;-70
2024/03/12 00:23:42;;;;;;;2.03;1.80;;;;;;;10.64;76.85;92952.69;521128;28;801;-70
2024/03/12 00:23:58;;;;;;;2.40;1.88;;;;;;;10.65;76.44;92956.19;521132;28;907;-71
2024/03/12 00:24:13;;;;;;;2.25;1.75;;;;;;;10.64;76.66;92958.22;521069;28;928;-70
2024/03/12 00:24:29;;;;;;;2.50;1.70;;;;;;;10.64;77.08;92958.22;521129;28;1055;-70
2024/03/12 00:24:46;;;;;;;3.42;1.90;;;;;;;10.60;77.36;92957.13;521144;28;784;-71
2024/03/12 00:25:01;;;;;;;3.53;2.00;;;;;;;10.58;77.28;92968.75;521055;28;800;-70
2024/03/12 00:25:19;;;;;;;2.50;1.90;;;;;;;10.54;77.13;92959.38;521193;28;821;-70
2024/03/12 00:25:34;;;;;;;3.22;1.90;;;;;;;10.48;77.39;92958.88;521143;28;907;-70
2024/03/12 00:25:50;;;;;;;2.63;1.75;;;;;;;10.48;77.69;92956.09;521125;28;766;-70
2024/03/12 00:26:06;;;;;;;2.63;1.60;;;;;;;10.44;78.04;92952.97;521132;28;752;-71
2024/03/12 00:26:21;;;;;;;3.63;1.73;;;;;;;10.43;77.82;92952.25;521095;28;809;-70
2024/03/12 00:26:37;;;;;;;3.67;1.70;;;;;;;10.37;77.97;92951.72;521096;28;813;-70
2024/03/12 00:26:53;;;;;;;3.63;1.52;;;;;;;10.36;78.00;92955.03;521133;28;899;-70
2024/03/12 00:27:09;;;;;;;2.57;1.40;;;;;;;10.33;78.29;92945.16;521097;28;741;-70
2024/03/12 00:27:24;;;;;;;2.03;1.35;;;;;;;10.26;78.01;92952.16;521140;28;789;-71
2024/03/12 00:27:40;;;;;;;1.93;1.10;;;;;;;10.26;77.93;92954.91;521193;28;729;-72
2024/03/12 00:27:56;;;;;;;2.10;1.07;;;;;;;10.26;77.96;92952.16;521043;28;942;-70
2024/03/12 00:28:11;;;;;;;1.63;1.17;;;;;;;10.29;77.79;92953.03;521156;28;773;-70
2024/03/12 00:28:27;;;;;;;1.40;1.20;;;;;;;10.33;77.91;92945.16;521155;28;820;-71
2024/03/12 00:28:42;;;;;;;1.53;1.20;;;;;;;10.34;77.99;92952.84;521088;28;891;-71
2024/03/12 00:28:58;;;;;;;1.63;1.20;;;;;;;10.35;77.78;92946.03;521141;28;821;-70
2024/03/12 00:29:15;;;;;;;2.13;1.27;;;;;;;10.34;77.98;92949.34;520966;28;1942;-71
2024/03/12 00:29:30;;;;;;;1.90;1.17;;;;;;;10.26;78.27;92949.41;521100;28;896;-71
2024/03/12 00:29:46;;;;;;;1.25;1.10;;;;;;;10.21;78.24;92950.34;521094;28;765;-71
2024/03/12 00:30:03;;;;;;;1.63;1.33;;;;;;;10.24;78.24;92954.75;521121;28;793;-70
2024/03/12 00:30:18;;;;;;;1.50;1.17;;;;;;;10.27;78.31;92955.63;521128;28;884;-70
2024/03/12 00:30:34;;;;;;;1.23;1.10;;;;;;;10.29;78.10;92951.03;521089;28;900;-71
2024/03/12 00:30:49;;;;;;;1.53;1.30;;;;;;;10.32;78.08;92952.69;521117;28;872;-71
2024/03/12 00:31:07;;;;;;;1.65;1.27;;;;;;;10.25;77.98;92936.88;521131;28;808;-71
2024/03/12 00:31:24;;;;;;;2.10;1.23;;;;;;;10.37;77.69;92951.00;521073;28;828;-70
2024/03/12 00:31:39;;;;;;;1.73;1.20;;;;;;;10.36;77.79;92955.78;521075;28;850;-70
2024/03/12 00:31:55;;;;;;;1.75;1.10;;;;;;;10.34;77.67;92955.63;521120;28;799;-70
2024/03/12 00:32:10;;;;;;;1.43;1.10;;;;;;;10.38;77.73;92955.97;521083;28;844;-71
2024/03/12 00:32:26;;;;;;;1.33;1.15;;;;;;;10.40;77.52;92950.63;521080;28;996;-71
2024/03/12 00:32:43;;;;;;;1.27;1.17;;;;;;;10.42;77.63;92950.03;521085;28;742;-70
2024/03/12 00:32:59;;;;;;;1.48;1.10;;;;;;;10.43;77.21;92951.53;521158;28;892;-71
2024/03/12 00:33:15;;;;;;;1.10;1.00;;;;;;;10.43;77.22;92955.03;521175;28;805;-70
2024/03/12 00:33:31;;;;;;;1.17;1.07;;;;;;;10.45;77.61;92955.19;521108;28;868;-71
2024/03/12 00:33:47;;;;;;;1.23;1.13;;;;;;;10.44;77.55;92953.72;521159;28;856;-71
2024/03/12 00:34:02;;;;;;;1.30;1.20;;;;;;;10.39;78.01;92949.16;521117;28;769;-71
2024/03/12 00:34:17;;;;;;;1.37;1.03;;;;;;;10.41;77.86;92951.34;521171;28;828;-71
2024/03/12 00:34:34;;;;;;;2.15;1.20;;;;;;;10.41;77.74;92952.09;521106;28;808;-70
2024/03/12 00:34:50;;;;;;;2.25;1.23;;;;;;;10.42;78.07;92952.81;521062;28;884;-71
2024/03/12 00:35:07;;;;;;;1.92;1.20;;;;;;;10.41;78.01;92949.34;521144;28;795;-70
2024/03/12 00:35:28;;;;;;;2.47;1.40;;;;;;;10.40;78.36;92947.84;521163;28;874;-71
2024/03/12 00:35:46;;;;;;;2.50;1.58;;;;;;;10.42;78.09;92948.03;521072;28;896;-71
2024/03/12 00:36:01;;;;;;;2.45;1.40;;;;;;;10.45;78.18;92948.94;521129;28;880;-71
2024/03/12 00:36:16;;;;;;;2.43;1.60;;;;;;;10.46;77.93;92951.13;521194;28;975;-71
2024/03/12 00:36:32;;;;;;;1.83;1.55;;;;;;;10.48;78.17;92948.53;521091;28;840;-71
2024/03/12 00:36:47;;;;;;;1.63;1.47;;;;;;;10.51;78.11;92944.66;521147;28;734;-71
2024/03/12 00:37:03;;;;;;;1.80;1.50;;;;;;;10.48;77.68;92945.78;521012;28;836;-71
2024/03/12 00:37:20;;;;;;;1.90;1.60;;;;;;;10.47;77.62;92952.59;521158;28;797;-71
2024/03/12 00:37:41;;;;;;;1.75;1.50;;;;;;;10.44;77.76;92944.69;521119;28;910;-71
2024/03/12 00:37:57;;;;;;;1.50;1.40;;;;;;;10.41;78.14;92945.84;521085;28;884;-71
2024/03/12 00:38:12;;;;;;;1.85;1.30;;;;;;;10.34;78.36;92943.84;521072;28;792;-71
2024/03/12 00:38:29;;;;;;;2.40;1.20;;;;;;;10.33;78.52;92945.84;521174;28;733;-71
2024/03/12 00:38:46;;;;;;;1.27;0.88;;;;;;;10.27;78.03;92937.06;521101;28;1044;-71
2024/03/12 00:39:03;;;;;;;0.75;0.75;;;;;;;10.18;77.98;92931.41;521013;28;891;-71
2024/03/12 00:39:21;;;;;;;1.02;0.90;;;;;;;10.12;78.12;92945.41;521105;28;797;-72
2024/03/12 00:39:37;;;;;;;0.93;0.90;;;;;;;10.06;78.68;92938.59;521076;28;849;-71
2024/03/12 00:39:52;;;;;;;1.25;1.08;;;;;;;10.02;78.75;92936.22;521026;28;788;-71
2024/03/12 00:40:11;;;;;;;1.33;1.07;;;;;;;10.04;78.63;92944.69;521095;28;836;-71
2024/03/12 00:40:33;;;;;;;1.13;1.02;;;;;;;10.06;78.88;92939.34;521049;28;875;-71
2024/03/12 00:40:50;;;;;;;1.80;1.15;;;;;;;10.03;79.56;92948.72;521807;28;884;-71
2024/03/12 00:41:05;;;;;;;2.55;1.23;;;;;;;10.00;79.68;92949.09;521173;28;816;-71
2024/03/12 00:41:21;;;;;;;1.40;1.07;;;;;;;10.00;79.95;92943.59;521077;28;770;-71
2024/03/12 00:41:37;;;;;;;1.20;1.10;;;;;;;9.96;80.23;92943.25;521093;28;828;-71
2024/03/12 00:41:54;;;;;;;1.52;1.20;;;;;;;9.95;80.46;92942.50;521013;28;844;-71
2024/03/12 00:42:10;;;;;;;1.50;1.08;;;;;;;9.96;80.41;92951.50;521092;28;982;-71
2024/03/12 00:42:26;;;;;;;1.45;1.23;;;;;;;9.95;80.66;92945.25;521171;28;766;-71
2024/03/12 00:42:42;;;;;;;2.10;1.20;;;;;;;9.91;80.72;92942.16;521079;28;861;-71
2024/03/12 00:42:59;;;;;;;3.75;1.20;;;;;;;9.89;80.92;92941.97;521061;28;820;-71
2024/03/12 00:43:15;;;;;;;1.63;1.20;;;;;;;9.90;81.12;92943.44;521076;28;860;-71
2024/03/12 00:43:32;;;;;;;2.03;1.10;;;;;;;9.90;81.03;92943.44;521054;28;964;-71
2024/03/12 00:43:47;;;;;;;2.42;1.02;;;;;;;9.91;80.75;92940.13;521098;28;808;-71
2024/03/12 00:44:03;;;;;;;1.90;1.07;;;;;;;9.93;80.65;92943.06;520877;28;1081;-71
2024/03/12 00:44:20;;;;;;;1.10;0.90;;;;;;;9.91;80.59;92948.41;520878;28;817;-71
2024/03/12 00:44:36;;;;;;;1.57;1.00;;;;;;;9.89;80.88;92937.19;522192;28;1164;-71
2024/03/12 00:44:51;;;;;;;1.75;1.08;;;;;;;9.83;80.83;92931.13;522914;28;856;-71
2024/03/12 00:45:11;;;;;;;1.40;0.90;;;;;;;9.88;80.79;92943.25;522962;28;836;-71
2024/03/12 00:45:29;;;;;;;1.00;0.85;;;;;;;9.87;80.94;92941.81;522991;28;883;-71
2024/03/12 00:45:44;;;;;;;1.05;0.90;;;;;;;9.88;80.87;92951.53;522965;28;939;-71
2024/03/12 00:46:01;;;;;;;1.00;0.90;;;;;;;9.88;80.60;92944.00;523141;28;793;-71
2024/03/12 00:46:17;;;;;;;0.98;0.90;;;;;;;9.91;80.75;92950.41;523184;28;832;-70
2024/03/12 00:46:32;;;;;;;1.40;0.95;;;;;;;9.92;80.74;92949.13;523156;28;922;-71
2024/03/12 00:46:48;;;;;;;1.80;1.07;;;;;;;9.90;80.66;92941.41;523143;28;848;-71
2024/03/12 00:47:05;;;;;;;1.48;1.08;;;;;;;9.88;80.93;92949.50;523170;28;806;-71
2024/03/12 00:47:21;;;;;;;1.33;1.03;;;;;;;9.88;81.02;92944.00;523034;28;863;-71
2024/03/12 00:47:41;;;;;;;1.15;0.85;;;;;;;9.81;81.37;92953.00;523047;28;1179;-71
2024/03/12 00:47:57;;;;;;;0.85;0.80;;;;;;;9.80;81.21;92948.06;523113;28;885;-71
2024/03/12 00:48:12;;;;;;;1.10;1.00;;;;;;;9.77;81.12;92946.41;523090;28;799;-71
2024/03/12 00:48:28;;;;;;;0.82;0.82;;;;;;;9.76;81.36;92951.22;523163;28;815;-71
2024/03/12 00:48:45;;;;;;;1.00;0.90;;;;;;;9.76;81.05;92948.44;523068;28;910;-71
2024/03/12 00:49:00;;;;;;;1.87;1.13;;;;;;;9.78;81.30;92945.88;523168;28;820;-71
2024/03/12 00:49:16;;;;;;;1.83;1.10;;;;;;;9.80;81.22;92948.06;523007;28;1915;-71
2024/03/12 00:49:31;;;;;;;1.20;1.10;;;;;;;9.82;81.14;92951.75;523174;28;796;-71
2024/03/12 00:49:47;;;;;;;1.10;1.00;;;;;;;9.84;81.21;92945.66;523083;28;856;-71
2024/03/12 00:50:02;;;;;;;1.23;1.13;;;;;;;9.87;81.28;92944.56;523028;28;861;-71
2024/03/12 00:50:20;;;;;;;1.30;1.20;;;;;;;9.88;81.29;92946.75;523179;28;855;-71
2024/03/12 00:50:36;;;;;;;1.20;1.05;;;;;;;9.46;81.18;92887.16;523135;28;944;-71
2024/03/12 00:50:53;;;;;;;2.83;1.00;;;;;;;9.87;81.13;92952.81;523181;28;888;-71
2024/03/12 00:51:11;;;;;;;2.90;1.00;;;;;;;9.86;81.00;92945.84;523067;28;864;-71
2024/03/12 00:51:26;;;;;;;1.00;0.85;;;;;;;9.85;80.76;92952.66;523068;28;812;-71
2024/03/12 00:51:42;;;;;;;0.82;0.82;;;;;;;9.85;81.14;92953.38;523112;28;908;-71
2024/03/12 00:51:57;;;;;;;0.90;0.90;;;;;;;9.87;81.05;92950.06;523250;28;749;-71
2024/03/12 00:52:12;;;;;;;1.20;1.10;;;;;;;9.87;81.27;92950.06;523105;28;942;-71
2024/03/12 00:52:28;;;;;;;1.70;1.30;;;;;;;9.87;81.31;92948.03;523179;28;788;-70
2024/03/12 00:52:43;;;;;;;1.90;1.23;;;;;;;9.89;81.35;92947.50;523053;28;978;-71
2024/03/12 00:53:01;;;;;;;1.25;1.10;;;;;;;9.84;81.30;92943.63;523125;28;899;-71
2024/03/12 00:53:17;;;;;;;1.98;1.42;;;;;;;9.91;81.46;92950.41;523092;28;828;-71
2024/03/12 00:53:32;;;;;;;2.75;1.40;;;;;;;9.91;81.03;92953.19;523192;28;902;-71
2024/03/12 00:53:48;;;;;;;1.80;1.17;;;;;;;9.93;80.99;92950.59;523158;28;772;-71
2024/03/12 00:54:04;;;;;;;1.38;1.02;;;;;;;9.93;81.09;92948.59;523130;28;995;-71
2024/03/12 00:54:20;;;;;;;1.52;1.05;;;;;;;9.94;81.04;92949.28;523031;28;921;-71
2024/03/12 00:54:36;;;;;;;2.00;1.40;;;;;;;9.93;81.64;92956.84;523170;28;741;-70
2024/03/12 00:54:51;;;;;;;1.70;1.15;;;;;;;9.74;81.71;92928.25;523134;28;800;-71
2024/03/12 00:55:16;;;;;;;1.70;1.20;;;;;;;9.94;81.78;92952.06;523063;28;817;-71
2024/03/12 00:55:31;;;;;;;2.28;1.48;;;;;;;9.96;81.94;92960.53;523030;28;872;-71
2024/03/12 00:55:47;;;;;;;2.50;1.55;;;;;;;9.96;81.74;92955.00;523137;28;832;-71
2024/03/12 00:56:03;;;;;;;2.63;1.30;;;;;;;9.97;81.77;92950.94;523061;28;853;-71
2024/03/12 00:56:18;;;;;;;1.30;1.10;;;;;;;9.97;82.13;92953.72;523190;28;883;-71
2024/03/12 00:56:34;;;;;;;1.30;1.20;;;;;;;9.96;82.42;92955.00;523093;28;801;-71
2024/03/12 00:56:49;;;;;;;1.80;1.33;;;;;;;9.97;82.23;92948.19;523100;28;840;-71
2024/03/12 00:57:08;;;;;;;1.92;1.30;;;;;;;9.98;82.36;92949.66;523080;28;808;-71
2024/03/12 00:57:27;;;;;;;1.25;1.13;;;;;;;9.99;82.17;92953.13;523117;28;958;-71
2024/03/12 00:57:43;;;;;;;1.70;1.25;;;;;;;10.02;81.96;92949.28;523149;28;938;-71
2024/03/12 00:57:58;;;;;;;2.20;1.40;;;;;;;10.02;82.30;92946.53;523243;28;884;-71
2024/03/12 00:58:15;;;;;;;2.28;1.48;;;;;;;9.84;81.91;92926.34;523081;28;882;-71
2024/03/12 00:58:33;;;;;;;3.13;1.67;;;;;;;10.02;82.13;92950.03;523098;28;887;-71
2024/03/12 00:58:48;;;;;;;3.30;1.83;;;;;;;10.03;82.18;92948.72;523137;28;907;-71
2024/03/12 00:59:05;;;;;;;2.17;1.67;;;;;;;10.01;82.26;92951.28;523069;28;859;-71
2024/03/12 00:59:20;;;;;;;1.42;1.27;;;;;;;10.00;81.97;92949.84;523104;28;824;-71
2024/03/12 00:59:37;;;;;;;1.52;1.30;;;;;;;10.01;81.92;92951.28;523089;28;840;-71
2024/03/12 00:59:52;;;;;;;1.98;1.45;;;;;;;9.99;82.23;92950.38;523170;28;832;-71
2024/03/12 01:00:22;;;;;;;1.70;1.38;;;;;;;10.00;82.29;92951.88;523023;28;821;-71
2024/03/12 01:00:39;;;;;;;2.13;1.40;;;;;;;10.01;82.25;92947.81;523170;28;850;-71
2024/03/12 01:00:55;;;;;;;2.70;1.50;;;;;;;10.02;82.09;92952.78;523151;28;840;-71
2024/03/12 01:01:14;;;;;;;2.35;1.48;;;;;;;10.02;82.06;92952.03;523054;28;847;-70
2024/03/12 01:01:30;;;;;;;2.10;1.40;;;;;;;10.02;82.30;92950.03;523127;28;891;-71
2024/03/12 01:01:46;;;;;;;2.15;1.50;;;;;;;10.03;81.99;92945.97;523183;28;797;-71
2024/03/12 01:02:02;;;;;;;2.08;1.60;;;;;;;10.04;82.22;92955.72;523165;28;785;-71
2024/03/12 01:02:19;;;;;;;1.92;1.40;;;;;;;10.05;82.20;92951.66;523183;28;875;-71
2024/03/12 01:02:34;;;;;;;1.73;1.27;;;;;;;10.02;82.06;92946.53;523112;28;847;-71
2024/03/12 01:02:50;;;;;;;1.50;1.20;;;;;;;10.02;82.15;92941.00;523132;28;781;-71
2024/03/12 01:03:08;;;;;;;1.63;1.40;;;;;;;10.01;82.35;92950.56;523080;28;891;-71
2024/03/12 01:03:23;;;;;;;1.63;1.50;;;;;;;10.01;82.24;92948.53;523081;28;820;-71
2024/03/12 01:03:39;;;;;;;2.70;1.50;;;;;;;10.02;81.98;92950.03;523158;28;824;-71
2024/03/12 01:03:55;;;;;;;3.10;1.50;;;;;;;10.01;82.02;92943.03;523059;28;907;-71
2024/03/12 01:04:11;;;;;;;3.35;1.40;;;;;;;9.99;81.92;92942.84;523108;28;832;-71
2024/03/12 01:04:26;;;;;;;2.50;1.20;;;;;;;9.93;82.12;92942.31;523160;28;816;-71
2024/03/12 01:04:42;;;;;;;1.27;1.17;;;;;;;9.88;82.01;92946.75;523144;28;828;-71
2024/03/12 01:04:59;;;;;;;1.23;1.10;;;;;;;9.87;81.71;92939.75;523105;28;765;-71
2024/03/12 01:05:21;;;;;;;1.58;1.00;;;;;;;9.86;81.74;92938.31;522961;28;864;-71
2024/03/12 01:05:37;;;;;;;2.20;1.00;;;;;;;9.86;82.12;92940.31;523205;28;934;-71
2024/03/12 01:05:53;;;;;;;1.08;0.98;;;;;;;9.87;81.59;92942.50;523078;28;903;-70
2024/03/12 01:06:11;;;;;;;1.00;0.90;;;;;;;9.83;82.11;92941.44;523092;28;1064;-71
2024/03/12 01:06:28;;;;;;;1.23;1.00;;;;;;;9.75;81.98;92940.72;523170;28;821;-71
2024/03/12 01:06:44;;;;;;;2.22;1.10;;;;;;;9.76;82.18;92945.69;522920;28;876;-71
2024/03/12 01:07:00;;;;;;;2.42;1.08;;;;;;;9.69;82.37;92940.19;522948;28;792;-71
2024/03/12 01:07:19;;;;;;;1.83;1.08;;;;;;;9.67;82.41;92942.75;522921;28;851;-71
2024/03/12 01:07:34;;;;;;;2.08;1.30;;;;;;;9.62;82.62;92936.16;522966;28;860;-71
2024/03/12 01:07:53;;;;;;;1.20;1.10;;;;;;;9.57;82.67;92934.31;522929;28;844;-70
2024/03/12 01:08:11;;;;;;;1.10;1.00;;;;;;;9.54;82.51;92938.22;522879;28;921;-71
2024/03/12 01:08:28;;;;;;;1.13;1.00;;;;;;;9.48;83.19;92934.19;522960;28;880;-71
2024/03/12 01:08:46;;;;;;;1.25;0.95;;;;;;;9.44;83.27;92942.09;523032;28;900;-71
2024/03/12 01:09:03;;;;;;;0.98;0.90;;;;;;;9.35;83.38;92939.88;523106;28;821;-71
2024/03/12 01:09:20;;;;;;;0.82;0.70;;;;;;;9.33;83.67;92939.72;523050;28;1977;-71
2024/03/12 01:09:39;;;;;;;1.13;0.82;;;;;;;9.34;83.89;92935.66;523113;28;859;-71
2024/03/12 01:09:55;;;;;;;1.15;1.05;;;;;;;9.37;83.58;92940.06;523092;28;886;-71
2024/03/12 01:10:10;;;;;;;2.08;1.30;;;;;;;9.36;83.61;92933.06;523040;28;870;-71
2024/03/12 01:10:27;;;;;;;1.93;1.13;;;;;;;9.38;83.94;92936.75;523081;28;843;-71
2024/03/12 01:10:43;;;;;;;2.00;1.08;;;;;;;9.40;83.63;92931.41;523118;28;903;-71
2024/03/12 01:10:58;;;;;;;2.27;1.20;;;;;;;9.44;83.68;92936.56;523055;28;906;-71
2024/03/12 01:11:14;;;;;;;1.20;1.10;;;;;;;9.47;83.49;92930.69;523065;28;764;-71
2024/03/12 01:11:29;;;;;;;1.50;1.00;;;;;;;9.47;83.74;92929.94;523102;28;776;-71
2024/03/12 01:11:46;;;;;;;2.63;1.17;;;;;;;9.48;83.57;92926.66;523153;28;748;-71
2024/03/12 01:12:03;;;;;;;1.87;1.27;;;;;;;9.49;83.73;92932.88;523169;28;883;-70
2024/03/12 01:12:18;;;;;;;1.83;1.40;;;;;;;9.50;83.75;92929.59;522979;28;919;-71
2024/03/12 01:12:34;;;;;;;2.00;1.53;;;;;;;9.51;83.96;92928.28;523120;28;1117;-71
2024/03/12 01:12:51;;;;;;;2.20;1.58;;;;;;;9.51;83.63;92936.56;523099;28;746;-71
2024/03/12 01:13:08;;;;;;;2.13;1.40;;;;;;;9.54;83.52;92935.44;522896;28;808;-71
2024/03/12 01:13:24;;;;;;;1.85;1.48;;;;;;;9.56;83.52;92930.13;522954;28;828;-71
2024/03/12 01:13:40;;;;;;;1.75;1.40;;;;;;;9.59;83.55;92933.78;522913;28;781;-71
2024/03/12 01:13:57;;;;;;;1.63;1.33;;;;;;;9.60;83.83;92930.47;522919;28;827;-71
2024/03/12 01:14:14;;;;;;;2.20;1.42;;;;;;;9.62;83.91;92940.94;522906;28;879;-71
2024/03/12 01:14:30;;;;;;;2.10;1.30;;;;;;;9.64;83.75;92941.09;522934;28;891;-71
2024/03/12 01:14:47;;;;;;;2.37;1.33;;;;;;;9.64;83.49;92936.34;523033;28;786;-71
2024/03/12 01:15:07;;;;;;;2.43;1.30;;;;;;;9.67;83.33;92937.25;523007;28;881;-71
2024/03/12 01:15:23;;;;;;;1.58;1.30;;;;;;;9.55;83.65;92914.16;523029;28;831;-71
2024/03/12 01:15:39;;;;;;;1.73;1.40;;;;;;;9.67;83.62;92928.97;523214;28;930;-71
2024/03/12 01:15:55;;;;;;;1.63;1.33;;;;;;;9.71;83.63;92943.88;523105;28;796;-71
2024/03/12 01:16:10;;;;;;;1.60;1.23;;;;;;;9.70;83.66;92938.91;523056;28;852;-71
2024/03/12 01:16:26;;;;;;;1.88;1.30;;;;;;;9.67;83.51;92932.47;523101;28;745;-71
2024/03/12 01:16:42;;;;;;;2.70;1.50;;;;;;;9.65;83.80;92942.59;523097;28;812;-71
2024/03/12 01:16:58;;;;;;;2.90;1.33;;;;;;;9.63;83.52;92934.88;523078;28;865;-70
2024/03/12 01:17:14;;;;;;;1.40;0.95;;;;;;;9.65;83.75;92934.31;523022;28;1135;-70
2024/03/12 01:17:29;;;;;;;0.80;0.80;;;;;;;9.67;83.55;92931.75;523107;28;824;-71
2024/03/12 01:17:45;;;;;;;0.80;0.80;;;;;;;9.67;83.25;92938.00;523092;28;883;-71
2024/03/12 01:18:03;;;;;;;1.20;0.82;;;;;;;9.69;83.54;92935.41;523174;28;925;-71
2024/03/12 01:18:18;;;;;;;1.85;0.98;;;;;;;9.72;83.47;92933.56;523135;28;828;-71
2024/03/12 01:18:34;;;;;;;1.60;1.00;;;;;;;9.73;83.44;92929.50;523129;28;737;-71
2024/03/12 01:18:50;;;;;;;1.07;1.00;;;;;;;9.74;83.18;92928.97;523038;28;867;-71
2024/03/12 01:19:07;;;;;;;0.90;0.90;;;;;;;9.77;83.14;92932.63;523082;28;808;-71
2024/03/12 01:19:23;;;;;;;1.70;1.00;;;;;;;9.75;83.21;92935.94;523069;28;827;-71
2024/03/12 01:19:41;;;;;;;1.80;1.00;;;;;;;9.77;83.14;92924.34;523122;28;760;-71
2024/03/12 01:19:58;;;;;;;0.90;0.90;;;;;;;9.78;83.06;92934.09;523111;28;820;-71
2024/03/12 01:20:16;;;;;;;0.80;0.80;;;;;;;9.77;82.99;92922.34;523108;28;913;-71
2024/03/12 01:20:34;;;;;;;0.98;0.90;;;;;;;9.79;82.79;92921.78;522996;28;848;-71
2024/03/12 01:20:50;;;;;;;1.55;1.00;;;;;;;9.80;82.96;92926.75;523133;28;885;-71
2024/03/12 01:21:08;;;;;;;1.00;0.90;;;;;;;9.81;82.72;92921.97;523120;28;780;-71